»·PEaware :: JA555SP KOSH-KOSH

JA555SP :: KOSH-KOSH

FLIGHT INFORMATION

Flight Status: Arrived
Operator: Privately registered:
Japan
More flights under this callsign
Pilot: Masa K. (30798)
Aircraft: BEECH AIRCRAFT DEBONAIR BONANZA
(BE33)
More flights by this aircraft type
Origin: KOSH Wittman Regl
United States
Destination: KOSH Wittman Regl
United States
More flights between these airports :: More routes between these airports
Route: >
File this flight plan on PilotEdge
Remarks:
Altitude:
(Current/Filed)
1,800ft
Speed:
(Current/Filed)
90kts
Departed: 17-Jul-21 02:25 PM
Arrived: 17-Jul-21 03:16 PM
Distance/Time
Traveled:
1nm/0:50
Distance/Time
To Go:
Arrived

Flight Plot

Page will automatically refresh every two minutes.

Flight plan parsing failed; only flown route is shown


Map Options




Map Legend


Flown Route
Filed Route
Departure Airport
Arrival Airport
Navaid (VOR, NDB)
Fix

Horizontal Profiles

Position Reports

Time Latitude Longitude Heading Altitude Ground
Speed
17-Jul-21 13:47 43.990140 -88.572671 92 783ft 0kts
17-Jul-21 13:48 43.990140 -88.572671 92 783ft 0kts
17-Jul-21 13:49 43.990140 -88.572671 92 783ft 0kts
17-Jul-21 13:50 43.990140 -88.572671 92 783ft 0kts
17-Jul-21 13:51 43.990140 -88.572671 92 783ft 0kts
17-Jul-21 13:52 43.990140 -88.572671 92 783ft 0kts
17-Jul-21 13:53 43.990140 -88.572671 92 783ft 0kts
17-Jul-21 13:54 43.990140 -88.572671 92 783ft 0kts
17-Jul-21 13:55 43.990140 -88.572671 92 783ft 0kts
17-Jul-21 13:56 43.990140 -88.572671 92 783ft 0kts
17-Jul-21 13:57 43.990725 -88.571974 88 780ft 9kts
17-Jul-21 13:58 43.990254 -88.566390 182 779ft 5kts
17-Jul-21 13:59 43.989905 -88.566802 354 779ft 0kts
17-Jul-21 14:00 43.989905 -88.566802 354 779ft 0kts
17-Jul-21 14:01 43.989905 -88.566802 354 779ft 0kts
17-Jul-21 14:02 43.989905 -88.566802 354 779ft 0kts
17-Jul-21 14:03 43.989905 -88.566802 354 779ft 0kts
17-Jul-21 14:04 43.989905 -88.566802 354 779ft 0kts
17-Jul-21 14:05 43.989905 -88.566802 354 779ft 0kts
17-Jul-21 14:06 43.989905 -88.566802 354 779ft 0kts
17-Jul-21 14:07 43.989905 -88.566802 354 779ft 0kts
17-Jul-21 14:08 43.989905 -88.566802 354 779ft 0kts
17-Jul-21 14:09 43.989905 -88.566802 354 779ft 0kts
17-Jul-21 14:10 43.989906 -88.566803 351 781ft 0kts
17-Jul-21 14:11 43.989901 -88.566802 346 781ft 0kts
17-Jul-21 14:12 43.989902 -88.566802 346 779ft 0kts
17-Jul-21 14:13 43.989902 -88.566802 346 779ft 0kts
17-Jul-21 14:14 43.989946 -88.566820 341 779ft 4kts
17-Jul-21 14:15 43.990451 -88.566919 352 778ft 0kts
17-Jul-21 14:16 43.990768 -88.564734 91 778ft 15kts
17-Jul-21 14:17 43.990434 -88.558305 132 779ft 13kts
17-Jul-21 14:18 43.988871 -88.555684 131 783ft 0kts
17-Jul-21 14:19 43.988535 -88.555117 129 783ft 7kts
17-Jul-21 14:20 43.988063 -88.554376 156 783ft 0kts
17-Jul-21 14:21 43.987363 -88.554328 182 786ft 0kts
17-Jul-21 14:22 43.985551 -88.554349 181 794ft 6kts
17-Jul-21 14:23 43.984281 -88.554361 179 793ft 13kts
17-Jul-21 14:24 43.970786 -88.554884 183 1081ft 81kts
17-Jul-21 14:25 43.949488 -88.537554 147 1271ft 93kts
17-Jul-21 14:26 43.928186 -88.518542 148 1273ft 95kts
17-Jul-21 14:27 43.907601 -88.502682 173 1312ft 90kts
17-Jul-21 14:28 43.883250 -88.498815 178 1798ft 98kts
17-Jul-21 14:29 43.859123 -88.497068 179 1759ft 84kts
17-Jul-21 14:30 43.838688 -88.505129 257 1841ft 91kts
17-Jul-21 14:31 43.837698 -88.539137 271 1959ft 93kts
17-Jul-21 14:32 43.836691 -88.573414 262 1748ft 88kts
17-Jul-21 14:33 43.832147 -88.604083 247 1854ft 89kts
17-Jul-21 14:34 43.827648 -88.638094 276 1875ft 95kts
17-Jul-21 14:35 43.836220 -88.671623 290 1794ft 96kts
17-Jul-21 14:36 43.848445 -88.700732 308 1766ft 88kts
17-Jul-21 14:37 43.864565 -88.726253 313 1793ft 91kts
17-Jul-21 14:38 43.881263 -88.748192 317 1824ft 89kts
17-Jul-21 14:39 43.904118 -88.760321 358 1783ft 98kts
17-Jul-21 14:40 43.928324 -88.756819 8 1754ft 91kts
17-Jul-21 14:41 43.937848 -88.727206 73 1630ft 92kts
17-Jul-21 14:44 43.912937 -88.777211 266 1759ft 101kts
17-Jul-21 14:45 43.901993 -88.797812 169 1752ft 93kts
17-Jul-21 14:46 43.882926 -88.814160 230 1795ft 85kts
17-Jul-21 14:47 43.872339 -88.842178 246 1812ft 90kts
17-Jul-21 14:48 43.859362 -88.871281 233 1891ft 93kts
17-Jul-21 14:49 43.852190 -88.907403 261 1848ft 101kts
17-Jul-21 14:50 43.848820 -88.945531 258 1850ft 101kts
17-Jul-21 14:51 43.840243 -88.980058 245 1786ft 90kts
17-Jul-21 14:52 43.829913 -89.010545 243 1795ft 82kts
17-Jul-21 14:53 43.818219 -89.041976 243 1785ft 99kts
17-Jul-21 14:54 43.800775 -89.069370 196 1741ft 97kts
17-Jul-21 14:55 43.775665 -89.072480 171 1791ft 88kts
17-Jul-21 14:56 43.759636 -89.053754 69 1797ft 95kts
17-Jul-21 14:57 43.772033 -89.018496 57 1835ft 115kts
17-Jul-21 14:58 43.787195 -88.984591 57 1770ft 89kts
17-Jul-21 14:59 43.800458 -88.955332 60 1810ft 90kts
17-Jul-21 15:00 43.812735 -88.921694 59 1793ft 97kts
17-Jul-21 15:01 43.824072 -88.890003 66 1853ft 93kts
17-Jul-21 15:02 43.836455 -88.855607 55 1790ft 102kts
17-Jul-21 15:03 43.851675 -88.829088 52 1785ft 93kts
17-Jul-21 15:04 43.867161 -88.801581 50 1871ft 98kts
17-Jul-21 15:05 43.882544 -88.772760 52 1784ft 97kts
17-Jul-21 15:06 43.899228 -88.747726 42 1796ft 90kts
17-Jul-21 15:07 43.917578 -88.723923 41 1793ft 99kts
17-Jul-21 15:08 43.936547 -88.702691 38 1786ft 85kts
17-Jul-21 15:09 43.953178 -88.681940 45 1797ft 83kts
17-Jul-21 15:10 43.968629 -88.654480 54 1783ft 95kts
17-Jul-21 15:11 43.982011 -88.625632 53 1860ft 91kts
17-Jul-21 15:12 43.995716 -88.596992 55 1794ft 89kts
17-Jul-21 15:13 44.001325 -88.566663 87 1722ft 83kts
17-Jul-21 15:14 43.992339 -88.548209 237 960ft 76kts
17-Jul-21 15:15 43.992294 -88.566192 270 780ft 19kts
17-Jul-21 15:16 43.992302 -88.572645 269 779ft 21kts
17-Jul-21 15:17 43.990261 -88.571512 177 782ft 6kts
17-Jul-21 15:18 43.989820 -88.571856 272 786ft 0kts
17-Jul-21 15:19 43.989820 -88.571856 272 786ft 0kts
17-Jul-21 15:20 43.989820 -88.571856 272 786ft 0kts
17-Jul-21 15:21 43.989820 -88.571856 272 786ft 0kts
17-Jul-21 15:22 43.989819 -88.571858 273 787ft 0kts
17-Jul-21 15:23 43.989819 -88.571858 273 787ft 0kts
17-Jul-21 15:24 43.989819 -88.571858 273 787ft 0kts
17-Jul-21 15:25 43.989819 -88.571858 273 787ft 0kts
17-Jul-21 15:26 43.989819 -88.571858 274 786ft 0kts
17-Jul-21 15:27 43.989819 -88.571858 274 787ft 0kts
17-Jul-21 15:28 43.989819 -88.571859 274 786ft 0kts
17-Jul-21 15:29 43.989819 -88.571858 274 786ft 0kts

Navigation Log

Ident Type
Flight plan parsing failed, navigation log unavailable